Time;durP1;ratioP1;P1;durP2;ratioP2;P2;SDS_P1;SDS_P2;PMS_P1;PMS_P2;Temp;Humidity;BMP_temperature;BMP_pressure;BME280_temperature;BME280_humidity;BME280_pressure;Samples;Min_cycle;Max_cycle;Signal;HPM_P1;HPM_P2
2020/12/10 00:02:11;;;;;;;20.13;14.73;;;;;;;;;;4955132;28;20173;-78
2020/12/10 00:04:37;;;;;;;19.00;14.30;;;;;;;;;;4954892;29;20177;-78
2020/12/10 00:07:04;;;;;;;15.03;12.57;;;;;;;;;;4955069;28;20201;-78
2020/12/10 00:09:31;;;;;;;17.97;13.73;;;;;;;;;;4955311;28;20268;-79
2020/12/10 00:11:57;;;;;;;17.83;14.50;;;;;;;;;;4953688;29;20531;-78
2020/12/10 00:14:23;;;;;;;17.53;14.60;;;;;;;;;;4953746;29;20207;-78
2020/12/10 00:16:49;;;;;;;19.60;14.90;;;;;;;;;;4954885;28;20212;-78
2020/12/10 00:19:16;;;;;;;18.27;14.33;;;;;;;;;;4955366;29;20563;-78
2020/12/10 00:21:41;;;;;;;17.30;14.30;;;;;;;;;;4953583;29;20181;-78
2020/12/10 00:24:07;;;;;;;17.57;14.00;;;;;;;;;;4953767;29;20184;-79
2020/12/10 00:26:34;;;;;;;17.53;14.17;;;;;;;;;;4954994;28;20244;-78
2020/12/10 00:29:00;;;;;;;17.83;14.07;;;;;;;;;;4955249;29;20177;-78
2020/12/10 00:31:26;;;;;;;19.13;14.17;;;;;;;;;;4953687;29;20177;-78
2020/12/10 00:33:52;;;;;;;18.50;14.80;;;;;;;;;;4954728;28;20215;-79
2020/12/10 00:36:18;;;;;;;16.27;13.83;;;;;;;;;;4954839;28;20219;-79
2020/12/10 00:38:45;;;;;;;21.00;14.47;;;;;;;;;;4955031;29;20563;-78
2020/12/10 00:41:11;;;;;;;15.70;13.63;;;;;;;;;;4953249;29;20181;-78
2020/12/10 00:43:37;;;;;;;15.43;12.70;;;;;;;;;;4954769;28;20189;-79
2020/12/10 00:46:03;;;;;;;16.27;13.70;;;;;;;;;;4954486;28;20188;-79
2020/12/10 00:48:29;;;;;;;15.60;13.07;;;;;;;;;;4954403;29;20274;-79
2020/12/10 00:50:55;;;;;;;15.17;12.87;;;;;;;;;;4953139;29;20596;-79
2020/12/10 00:53:21;;;;;;;16.00;13.97;;;;;;;;;;4954362;29;20395;-79
2020/12/10 00:55:48;;;;;;;14.70;12.77;;;;;;;;;;4953065;29;20201;-78
2020/12/10 00:58:14;;;;;;;15.53;13.33;;;;;;;;;;4954197;28;20279;-77
2020/12/10 01:00:40;;;;;;;14.13;12.63;;;;;;;;;;4954556;28;20189;-78
2020/12/10 01:03:06;;;;;;;15.50;12.87;;;;;;;;;;4954144;29;20177;-77
2020/12/10 01:05:32;;;;;;;16.63;13.27;;;;;;;;;;4954149;28;20181;-77
2020/12/10 01:07:58;;;;;;;15.97;12.93;;;;;;;;;;4952625;28;20205;-78
2020/12/10 01:10:24;;;;;;;14.53;12.43;;;;;;;;;;4954588;28;20178;-78
2020/12/10 01:12:51;;;;;;;14.43;12.93;;;;;;;;;;4957929;28;20594;-78
2020/12/10 01:15:17;;;;;;;17.80;12.57;;;;;;;;;;4957959;29;20623;-78
2020/12/10 01:17:44;;;;;;;16.80;12.80;;;;;;;;;;4957743;28;20589;-78
2020/12/10 01:20:11;;;;;;;14.60;12.73;;;;;;;;;;4957647;29;20181;-78
2020/12/10 01:22:38;;;;;;;17.83;13.67;;;;;;;;;;4958035;28;20185;-78
2020/12/10 01:25:04;;;;;;;16.20;13.17;;;;;;;;;;4956355;29;20555;-78
2020/12/10 01:27:30;;;;;;;16.43;12.70;;;;;;;;;;4957576;28;20211;-78
2020/12/10 01:29:56;;;;;;;16.40;12.83;;;;;;;;;;4957583;29;20181;-78
2020/12/10 01:32:26;;;;;;;16.40;12.90;;;;;;;;;;4957834;29;20516;-79
2020/12/10 01:34:53;;;;;;;15.60;12.43;;;;;;;;;;4957113;28;20208;-78
2020/12/10 01:37:20;;;;;;;16.87;12.73;;;;;;;;;;4957584;28;20193;-78
2020/12/10 01:39:46;;;;;;;17.37;13.20;;;;;;;;;;4957451;28;20181;-78
2020/12/10 01:42:13;;;;;;;18.20;13.83;;;;;;;;;;4965758;28;20723;-78
2020/12/10 01:44:39;;;;;;;15.73;13.40;;;;;;;;;;4957708;28;20185;-78
2020/12/10 01:47:06;;;;;;;19.03;13.90;;;;;;;;;;4937764;29;20727;-78
2020/12/10 01:49:34;;;;;;;16.67;13.70;;;;;;;;;;4957237;28;20191;-78
2020/12/10 01:52:00;;;;;;;14.97;12.83;;;;;;;;;;4957222;29;20196;-79
2020/12/10 01:54:26;;;;;;;16.83;14.13;;;;;;;;;;4955371;29;20209;-78
2020/12/10 01:56:53;;;;;;;18.30;14.03;;;;;;;;;;4957099;28;20288;-79
2020/12/10 01:59:20;;;;;;;15.80;13.33;;;;;;;;;;4957175;28;20182;-79
2020/12/10 02:01:46;;;;;;;17.13;14.27;;;;;;;;;;4955909;29;20192;-79
2020/12/10 02:04:29;;;;;;;18.83;15.10;;;;;;;;;;4957070;28;20193;-79
2020/12/10 02:06:55;;;;;;;19.23;14.60;;;;;;;;;;4956875;28;20578;-79
2020/12/10 02:09:22;;;;;;;18.40;15.03;;;;;;;;;;4957332;28;20185;-79
2020/12/10 02:11:48;;;;;;;18.43;15.10;;;;;;;;;;4957162;28;20206;-78
2020/12/10 02:14:14;;;;;;;18.30;15.00;;;;;;;;;;4956836;28;20251;-78
2020/12/10 02:16:40;;;;;;;19.10;15.20;;;;;;;;;;4955377;28;20197;-78
2020/12/10 02:19:07;;;;;;;19.60;15.27;;;;;;;;;;4956785;28;20189;-78
2020/12/10 02:21:33;;;;;;;17.53;14.40;;;;;;;;;;4956537;28;20209;-78
2020/12/10 02:23:59;;;;;;;17.97;14.37;;;;;;;;;;4956160;29;20615;-78
2020/12/10 02:26:25;;;;;;;19.60;15.50;;;;;;;;;;4956438;28;20698;-79
2020/12/10 02:28:52;;;;;;;18.57;15.03;;;;;;;;;;4956944;28;20616;-79
2020/12/10 02:31:25;;;;;;;19.03;15.13;;;;;;;;;;4957192;28;20181;-79
2020/12/10 02:33:51;;;;;;;18.17;14.43;;;;;;;;;;4956835;28;20208;-79
2020/12/10 02:36:17;;;;;;;19.37;14.53;;;;;;;;;;4956644;28;20241;-79
2020/12/10 02:38:43;;;;;;;19.40;14.53;;;;;;;;;;4956314;28;20678;-78
2020/12/10 02:41:13;;;;;;;21.10;15.73;;;;;;;;;;4956552;28;20188;-78
2020/12/10 02:43:39;;;;;;;23.67;17.20;;;;;;;;;;4956297;28;20644;-78
2020/12/10 02:46:06;;;;;;;21.87;16.10;;;;;;;;;;4956247;28;20265;-78
2020/12/10 02:48:32;;;;;;;21.47;15.57;;;;;;;;;;4956107;28;20674;-79
2020/12/10 02:51:00;;;;;;;23.10;16.53;;;;;;;;;;4956387;28;20232;-78
2020/12/10 02:53:27;;;;;;;23.63;15.97;;;;;;;;;;4954842;29;20212;-78
2020/12/10 02:55:53;;;;;;;20.13;16.10;;;;;;;;;;4955934;29;20189;-78
2020/12/10 02:58:20;;;;;;;21.07;15.80;;;;;;;;;;4956299;29;20179;-78
2020/12/10 03:00:46;;;;;;;26.27;17.07;;;;;;;;;;4956422;28;20212;-78
2020/12/10 03:03:13;;;;;;;24.53;16.90;;;;;;;;;;4952191;28;20189;-77
2020/12/10 03:05:39;;;;;;;25.33;17.03;;;;;;;;;;4946859;29;20192;-77
2020/12/10 03:08:05;;;;;;;22.93;16.77;;;;;;;;;;4955578;28;20668;-78
2020/12/10 03:10:32;;;;;;;23.53;16.40;;;;;;;;;;4954771;29;20594;-78
2020/12/10 03:12:58;;;;;;;23.23;17.03;;;;;;;;;;4955719;29;20691;-78
2020/12/10 03:15:24;;;;;;;24.23;16.60;;;;;;;;;;4955960;28;20189;-78
2020/12/10 03:17:50;;;;;;;21.70;15.73;;;;;;;;;;4954804;28;20227;-78
2020/12/10 03:20:17;;;;;;;21.13;15.20;;;;;;;;;;4957448;28;20622;-78
2020/12/10 03:22:44;;;;;;;25.60;17.80;;;;;;;;;;4962471;28;20805;-78
2020/12/10 03:25:10;;;;;;;24.23;16.83;;;;;;;;;;4953945;28;20228;-78
2020/12/10 03:27:36;;;;;;;21.90;16.77;;;;;;;;;;4955065;28;20610;-78
2020/12/10 03:30:03;;;;;;;20.43;15.27;;;;;;;;;;4955430;29;20232;-78
2020/12/10 03:32:30;;;;;;;22.47;15.63;;;;;;;;;;4954805;28;20181;-78
2020/12/10 03:34:56;;;;;;;21.57;15.13;;;;;;;;;;4954822;28;20204;-79
2020/12/10 03:37:23;;;;;;;22.57;15.80;;;;;;;;;;4954502;28;20201;-79
2020/12/10 03:39:49;;;;;;;21.80;15.33;;;;;;;;;;4955319;28;20184;-79
2020/12/10 03:42:16;;;;;;;22.17;16.73;;;;;;;;;;4955088;28;20177;-79
2020/12/10 03:44:42;;;;;;;22.40;16.83;;;;;;;;;;4955268;29;20240;-79
2020/12/10 03:47:09;;;;;;;21.87;15.57;;;;;;;;;;4954529;28;20731;-78
2020/12/10 03:49:35;;;;;;;21.13;15.93;;;;;;;;;;4954902;28;20185;-79
2020/12/10 03:52:01;;;;;;;19.50;14.93;;;;;;;;;;4953987;28;20554;-79
2020/12/10 03:54:27;;;;;;;22.00;16.17;;;;;;;;;;4953921;28;20205;-77
2020/12/10 03:56:54;;;;;;;21.87;15.97;;;;;;;;;;4952844;29;20213;-79
2020/12/10 03:59:20;;;;;;;19.37;14.93;;;;;;;;;;4953782;28;20180;-79
2020/12/10 04:01:46;;;;;;;24.47;17.13;;;;;;;;;;4953486;29;20185;-76
2020/12/10 04:04:13;;;;;;;21.50;15.93;;;;;;;;;;4952165;29;20275;-79
2020/12/10 04:06:43;;;;;;;24.13;16.77;;;;;;;;;;4953244;28;20204;-78
2020/12/10 04:09:10;;;;;;;21.70;16.77;;;;;;;;;;4953321;28;20664;-78
2020/12/10 04:11:36;;;;;;;19.77;15.20;;;;;;;;;;4953259;28;20205;-79
2020/12/10 04:14:02;;;;;;;21.23;15.83;;;;;;;;;;4955070;29;20209;-77
2020/12/10 04:16:28;;;;;;;22.83;16.30;;;;;;;;;;4955253;28;20213;-78
2020/12/10 04:18:54;;;;;;;21.83;16.60;;;;;;;;;;4955353;28;20232;-77
2020/12/10 04:21:21;;;;;;;23.27;15.80;;;;;;;;;;4955632;29;20537;-78
2020/12/10 04:23:47;;;;;;;24.17;16.30;;;;;;;;;;4955680;28;20185;-78
2020/12/10 04:26:16;;;;;;;24.83;16.93;;;;;;;;;;4955230;28;20196;-78
2020/12/10 04:28:46;;;;;;;22.87;16.47;;;;;;;;;;4955318;28;20189;-78
2020/12/10 04:31:12;;;;;;;28.50;17.93;;;;;;;;;;4955510;28;20189;-78
2020/12/10 04:33:39;;;;;;;24.33;16.50;;;;;;;;;;4954931;28;20205;-78
2020/12/10 04:36:05;;;;;;;24.37;16.27;;;;;;;;;;4955120;28;20216;-77
2020/12/10 04:38:33;;;;;;;25.97;16.83;;;;;;;;;;4955329;28;20189;-78
2020/12/10 04:40:59;;;;;;;22.33;16.43;;;;;;;;;;4955287;28;20173;-77
2020/12/10 04:43:26;;;;;;;23.77;16.53;;;;;;;;;;4955354;29;20192;-78
2020/12/10 04:45:59;;;;;;;24.20;16.47;;;;;;;;;;4954962;28;20181;-78
2020/12/10 04:48:27;;;;;;;25.53;18.00;;;;;;;;;;4958950;29;20204;-78
2020/12/10 04:50:54;;;;;;;24.33;17.00;;;;;;;;;;4959029;28;20181;-78
2020/12/10 04:53:21;;;;;;;24.43;16.50;;;;;;;;;;4959157;29;20189;-77
2020/12/10 04:55:47;;;;;;;21.07;15.90;;;;;;;;;;4959055;28;20600;-78
2020/12/10 04:58:14;;;;;;;23.70;16.47;;;;;;;;;;4959093;28;20201;-78
2020/12/10 05:00:42;;;;;;;23.60;16.87;;;;;;;;;;4957412;28;20181;-79
2020/12/10 05:03:08;;;;;;;22.73;16.40;;;;;;;;;;4970501;28;20177;-79
2020/12/10 05:05:35;;;;;;;23.33;16.03;;;;;;;;;;4957219;29;20193;-79
2020/12/10 05:08:02;;;;;;;24.57;17.30;;;;;;;;;;4958216;28;20205;-79
2020/12/10 05:10:28;;;;;;;23.03;16.40;;;;;;;;;;4959187;29;20185;-78
2020/12/10 05:13:08;;;;;;;26.87;17.47;;;;;;;;;;4959365;28;20182;-78
2020/12/10 05:15:35;;;;;;;24.80;16.63;;;;;;;;;;4956961;29;20192;-78
2020/12/10 05:18:11;;;;;;;27.03;18.07;;;;;;;;;;4960990;28;20201;-78
2020/12/10 05:20:38;;;;;;;26.23;17.23;;;;;;;;;;4960907;28;20204;-78
2020/12/10 05:23:07;;;;;;;26.97;18.23;;;;;;;;;;4961645;28;20264;-78
2020/12/10 05:25:44;;;;;;;30.47;18.47;;;;;;;;;;4963566;29;20179;-79
2020/12/10 05:28:10;;;;;;;25.93;17.50;;;;;;;;;;4963049;28;20720;-78
2020/12/10 05:30:37;;;;;;;28.20;17.73;;;;;;;;;;4963336;28;20220;-78
2020/12/10 05:33:09;;;;;;;26.70;17.57;;;;;;;;;;4959661;29;20174;-78
2020/12/10 05:35:36;;;;;;;28.43;18.53;;;;;;;;;;4960242;28;20255;-78
2020/12/10 05:38:07;;;;;;;24.27;17.27;;;;;;;;;;4959796;28;20201;-78
2020/12/10 05:40:33;;;;;;;26.50;17.30;;;;;;;;;;4958785;28;20695;-79
2020/12/10 05:43:00;;;;;;;24.90;16.93;;;;;;;;;;4957625;28;20193;-78
2020/12/10 05:45:27;;;;;;;24.63;16.70;;;;;;;;;;4959326;28;20185;-78
2020/12/10 05:48:01;;;;;;;27.03;17.97;;;;;;;;;;4995004;23;20228;-79
2020/12/10 05:50:28;;;;;;;27.63;18.03;;;;;;;;;;4982789;28;20176;-79
2020/12/10 05:53:07;;;;;;;26.90;18.00;;;;;;;;;;4963800;28;20185;-80
2020/12/10 05:55:34;;;;;;;29.27;18.93;;;;;;;;;;4965615;28;20674;-78
2020/12/10 05:58:01;;;;;;;31.23;19.10;;;;;;;;;;4955298;28;20193;-78
2020/12/10 06:00:28;;;;;;;27.37;18.13;;;;;;;;;;4943701;29;20178;-78
2020/12/10 06:02:55;;;;;;;29.40;18.10;;;;;;;;;;4945179;29;20213;-79
2020/12/10 06:05:22;;;;;;;31.33;18.50;;;;;;;;;;4962804;28;20578;-79
2020/12/10 06:07:58;;;;;;;28.03;17.93;;;;;;;;;;4962447;28;20215;-78
2020/12/10 06:10:26;;;;;;;29.77;18.13;;;;;;;;;;4961717;28;20173;-79
2020/12/10 06:12:52;;;;;;;26.70;17.10;;;;;;;;;;4960916;28;20264;-78
2020/12/10 06:15:25;;;;;;;25.50;16.53;;;;;;;;;;4960509;29;20843;-78
2020/12/10 06:18:10;;;;;;;27.43;17.67;;;;;;;;;;4962016;28;20204;-79
2020/12/10 06:20:39;;;;;;;25.10;16.13;;;;;;;;;;4962246;28;20201;-78
2020/12/10 06:23:25;;;;;;;26.20;16.93;;;;;;;;;;4961599;28;20257;-79
2020/12/10 06:25:51;;;;;;;31.03;17.87;;;;;;;;;;4945982;28;20201;-78
2020/12/10 06:28:21;;;;;;;28.93;17.93;;;;;;;;;;4956658;29;20197;-78
2020/12/10 06:31:03;;;;;;;33.37;19.80;;;;;;;;;;4962245;29;20189;-78
2020/12/10 06:33:36;;;;;;;33.37;18.97;;;;;;;;;;4950220;28;20216;-78
2020/12/10 06:36:21;;;;;;;32.47;19.60;;;;;;;;;;4963172;29;20531;-79
2020/12/10 06:38:48;;;;;;;30.00;18.83;;;;;;;;;;4946430;28;20606;-78
2020/12/10 06:41:14;;;;;;;34.20;19.23;;;;;;;;;;4947705;28;20185;-78
2020/12/10 06:43:41;;;;;;;34.13;20.17;;;;;;;;;;4948947;28;20186;-78
2020/12/10 06:46:10;;;;;;;28.80;18.17;;;;;;;;;;4945402;28;20233;-77
2020/12/10 06:48:44;;;;;;;34.43;20.40;;;;;;;;;;4943643;29;20233;-77
2020/12/10 06:51:16;;;;;;;37.17;19.50;;;;;;;;;;4951214;29;20194;-77
2020/12/10 06:54:00;;;;;;;33.33;19.50;;;;;;;;;;4950246;28;20201;-78
2020/12/10 06:56:57;;;;;;;32.63;18.60;;;;;;;;;;4964279;29;20201;-78
2020/12/10 06:59:44;;;;;;;38.17;20.87;;;;;;;;;;4965307;28;20546;-78
2020/12/10 07:02:29;;;;;;;33.77;19.80;;;;;;;;;;4949764;29;20178;-79
2020/12/10 07:04:55;;;;;;;41.20;20.83;;;;;;;;;;4962293;29;20601;-79
2020/12/10 07:07:23;;;;;;;34.47;18.87;;;;;;;;;;4964973;28;20205;-78
2020/12/10 07:09:53;;;;;;;41.40;20.07;;;;;;;;;;4963286;28;20280;-78
2020/12/10 07:12:20;;;;;;;36.40;19.97;;;;;;;;;;4962834;29;20181;-79
2020/12/10 07:14:47;;;;;;;40.20;20.50;;;;;;;;;;4962902;28;20556;-78
2020/12/10 07:17:13;;;;;;;38.47;20.73;;;;;;;;;;4959810;29;20321;-79
2020/12/10 07:19:39;;;;;;;35.03;20.80;;;;;;;;;;4961494;28;20204;-78
2020/12/10 07:22:05;;;;;;;40.30;21.87;;;;;;;;;;4959824;29;20232;-79
2020/12/10 07:24:31;;;;;;;37.20;20.53;;;;;;;;;;4960353;29;20199;-78
2020/12/10 07:26:57;;;;;;;36.50;20.50;;;;;;;;;;4959924;29;20295;-78
2020/12/10 07:29:23;;;;;;;42.80;21.30;;;;;;;;;;4961459;29;20224;-78
2020/12/10 07:31:50;;;;;;;38.63;19.87;;;;;;;;;;4960879;28;20690;-76
2020/12/10 07:34:16;;;;;;;40.87;20.80;;;;;;;;;;4964825;28;20216;-80
2020/12/10 07:36:46;;;;;;;46.87;22.67;;;;;;;;;;4968007;29;20763;-80
2020/12/10 07:39:13;;;;;;;40.97;21.57;;;;;;;;;;4957595;29;20644;-81
2020/12/10 07:41:40;;;;;;;41.70;20.63;;;;;;;;;;4971317;28;20660;-80
2020/12/10 07:44:06;;;;;;;43.00;22.17;;;;;;;;;;4971334;29;20252;-80
2020/12/10 07:46:36;;;;;;;39.43;20.93;;;;;;;;;;4971222;28;20193;-79
2020/12/10 07:49:03;;;;;;;39.53;19.70;;;;;;;;;;4974282;28;20204;-81
2020/12/10 07:51:30;;;;;;;42.00;21.57;;;;;;;;;;4974272;28;20196;-81
2020/12/10 07:54:03;;;;;;;43.03;22.93;;;;;;;;;;4971565;29;20230;-79
2020/12/10 07:56:31;;;;;;;39.20;20.60;;;;;;;;;;4972162;29;20189;-81
2020/12/10 07:58:57;;;;;;;40.30;20.17;;;;;;;;;;4970260;28;20595;-82
2020/12/10 08:01:30;;;;;;;37.97;20.40;;;;;;;;;;4970678;29;20181;-82
2020/12/10 08:04:17;;;;;;;40.03;19.80;;;;;;;;;;4970486;28;20182;-81
2020/12/10 08:06:44;;;;;;;39.13;20.43;;;;;;;;;;4970335;28;20181;-80
2020/12/10 08:09:11;;;;;;;36.73;20.00;;;;;;;;;;4969826;29;20185;-81
2020/12/10 08:11:53;;;;;;;41.00;20.40;;;;;;;;;;4970128;28;20645;-81
2020/12/10 08:14:26;;;;;;;39.17;20.47;;;;;;;;;;4968675;29;20197;-81
2020/12/10 08:16:52;;;;;;;38.40;20.43;;;;;;;;;;4970905;28;20615;-81
2020/12/10 08:19:19;;;;;;;39.70;20.03;;;;;;;;;;4970256;28;20263;-81
2020/12/10 08:21:52;;;;;;;33.23;19.50;;;;;;;;;;4968703;29;20181;-81
2020/12/10 08:24:41;;;;;;;35.80;18.47;;;;;;;;;;4969723;29;20204;-81
2020/12/10 08:27:16;;;;;;;26.93;16.03;;;;;;;;;;4971492;29;20205;-81
2020/12/10 08:30:04;;;;;;;31.23;16.70;;;;;;;;;;4952876;29;20189;-81
2020/12/10 08:32:30;;;;;;;31.70;16.93;;;;;;;;;;4959629;29;20215;-81
2020/12/10 08:35:22;;;;;;;33.27;17.60;;;;;;;;;;4971007;28;20208;-81
2020/12/10 08:38:14;;;;;;;29.50;16.50;;;;;;;;;;4970630;29;20243;-81
2020/12/10 08:40:54;;;;;;;28.17;15.63;;;;;;;;;;4968434;29;20608;-81
2020/12/10 08:43:20;;;;;;;27.13;16.23;;;;;;;;;;4971492;28;20181;-82
2020/12/10 08:45:47;;;;;;;26.50;16.47;;;;;;;;;;4965652;29;20177;-82
2020/12/10 08:48:31;;;;;;;28.33;16.57;;;;;;;;;;4967488;28;20224;-81
2020/12/10 08:51:11;;;;;;;25.03;15.13;;;;;;;;;;4968512;28;20519;-81
2020/12/10 08:53:45;;;;;;;26.10;15.90;;;;;;;;;;4967292;28;20217;-81
2020/12/10 08:56:18;;;;;;;22.90;14.70;;;;;;;;;;4967516;28;20302;-81
2020/12/10 08:58:44;;;;;;;26.63;15.53;;;;;;;;;;4966584;29;20201;-81
2020/12/10 09:01:10;;;;;;;25.83;15.70;;;;;;;;;;4965220;29;20636;-81
2020/12/10 09:03:36;;;;;;;26.03;16.23;;;;;;;;;;4966926;28;20185;-82
2020/12/10 09:06:02;;;;;;;26.87;16.13;;;;;;;;;;4965141;29;20187;-80
2020/12/10 09:08:29;;;;;;;22.70;14.93;;;;;;;;;;4965077;29;20208;-82
2020/12/10 09:10:55;;;;;;;24.47;15.50;;;;;;;;;;4967484;29;20268;-82
2020/12/10 09:13:24;;;;;;;22.93;15.60;;;;;;;;;;4969616;29;20184;-81
2020/12/10 09:15:51;;;;;;;27.07;17.03;;;;;;;;;;4967352;29;20680;-82
2020/12/10 09:18:17;;;;;;;21.30;14.83;;;;;;;;;;4965065;29;20661;-81
2020/12/10 09:20:43;;;;;;;18.27;12.97;;;;;;;;;;4966846;29;20181;-81
2020/12/10 09:23:12;;;;;;;25.97;16.57;;;;;;;;;;4967874;28;20264;-81
2020/12/10 09:25:39;;;;;;;24.70;17.10;;;;;;;;;;4966797;28;20202;-80
2020/12/10 09:28:08;;;;;;;23.50;14.20;;;;;;;;;;4967291;28;20231;-80
2020/12/10 09:30:34;;;;;;;20.40;13.53;;;;;;;;;;4967046;29;20182;-81
2020/12/10 09:33:00;;;;;;;20.57;14.80;;;;;;;;;;4950629;29;20679;-81
2020/12/10 09:35:26;;;;;;;17.30;13.43;;;;;;;;;;4968314;29;20231;-81
2020/12/10 09:37:52;;;;;;;20.37;13.97;;;;;;;;;;4970099;28;20208;-81
2020/12/10 09:40:22;;;;;;;23.10;15.60;;;;;;;;;;4971069;29;20216;-80
2020/12/10 09:43:01;;;;;;;;;;;;;;;;;;;;;
2020/12/10 09:45:27;;;;;;;22.47;14.93;;;;;;;;;;4965550;28;20272;-81
2020/12/10 09:47:58;;;;;;;19.97;13.63;;;;;;;;;;4971091;28;20225;-79
2020/12/10 09:50:39;;;;;;;18.17;13.80;;;;;;;;;;4969016;28;20559;-79
2020/12/10 09:58:01;;;;;;;26.40;18.63;;;;;;;;;;4968428;28;20201;-80
2020/12/10 10:00:28;;;;;;;18.50;13.60;;;;;;;;;;4968759;28;20177;-80
2020/12/10 10:02:57;;;;;;;20.33;14.40;;;;;;;;;;4966627;29;20229;-80
2020/12/10 10:05:23;;;;;;;22.70;14.57;;;;;;;;;;4967672;29;20192;-80
2020/12/10 10:07:59;;;;;;;22.10;15.17;;;;;;;;;;4968510;28;20205;-80
2020/12/10 10:10:25;;;;;;;22.23;14.37;;;;;;;;;;4967356;29;20193;-79
2020/12/10 10:13:02;;;;;;;21.90;14.97;;;;;;;;;;4969267;28;20185;-80
2020/12/10 10:15:28;;;;;;;19.40;14.63;;;;;;;;;;4964640;28;20256;-79
2020/12/10 10:18:00;;;;;;;20.27;15.07;;;;;;;;;;4967671;29;20209;-79
2020/12/10 10:20:29;;;;;;;21.27;15.23;;;;;;;;;;4966685;29;20185;-80
2020/12/10 10:23:06;;;;;;;;;;;;;;;;;;;;;
2020/12/10 10:25:43;;;;;;;21.67;15.27;;;;;;;;;;4968232;29;20244;-81
2020/12/10 10:28:10;;;;;;;21.03;15.50;;;;;;;;;;4968599;29;20216;-80
2020/12/10 10:30:37;;;;;;;22.47;16.57;;;;;;;;;;4967191;29;20185;-80
2020/12/10 10:33:03;;;;;;;22.50;16.50;;;;;;;;;;4953371;29;20181;-81
2020/12/10 10:35:29;;;;;;;21.80;16.50;;;;;;;;;;4968592;28;20212;-80
2020/12/10 10:38:01;;;;;;;21.20;16.50;;;;;;;;;;4967430;28;20205;-80
2020/12/10 10:40:27;;;;;;;24.47;17.90;;;;;;;;;;4967543;28;20185;-80
2020/12/10 10:42:53;;;;;;;25.83;18.23;;;;;;;;;;4968155;28;20173;-80
2020/12/10 10:45:36;;;;;;;;;;;;;;;;;;;;;
2020/12/10 10:48:02;;;;;;;16.83;15.00;;;;;;;;;;4967451;29;20276;-79
2020/12/10 10:50:28;;;;;;;20.00;15.87;;;;;;;;;;4967476;28;20184;-80
2020/12/10 10:52:55;;;;;;;20.07;14.97;;;;;;;;;;4967346;28;20188;-80
2020/12/10 10:55:31;;;;;;;;;;;;;;;;;;;;;
2020/12/10 10:57:57;;;;;;;18.40;14.20;;;;;;;;;;4966602;29;20272;-80
2020/12/10 11:00:23;;;;;;;18.80;15.50;;;;;;;;;;4967373;28;20179;-79
2020/12/10 11:02:51;;;;;;;19.93;15.13;;;;;;;;;;4967694;28;20185;-80
2020/12/10 11:05:17;;;;;;;17.30;14.57;;;;;;;;;;4966986;28;20185;-79
2020/12/10 11:07:43;;;;;;;19.87;15.63;;;;;;;;;;4967220;28;20281;-80
2020/12/10 11:10:10;;;;;;;18.07;14.73;;;;;;;;;;4978745;28;20184;-79
2020/12/10 11:12:36;;;;;;;19.23;15.30;;;;;;;;;;4966388;28;20241;-80
2020/12/10 11:15:03;;;;;;;17.50;14.40;;;;;;;;;;4965566;28;20575;-79
2020/12/10 11:17:30;;;;;;;17.20;14.27;;;;;;;;;;4965630;28;20201;-79
2020/12/10 11:19:56;;;;;;;17.43;14.47;;;;;;;;;;4965333;28;20165;-81
2020/12/10 11:22:27;;;;;;;18.13;15.07;;;;;;;;;;4978220;28;20177;-81
2020/12/10 11:25:04;;;;;;;;;;;;;;;;;;;;;
2020/12/10 11:27:30;;;;;;;17.33;15.27;;;;;;;;;;4965638;28;20268;-80
2020/12/10 11:30:00;;;;;;;16.93;14.63;;;;;;;;;;4965301;28;20185;-79
2020/12/10 11:32:26;;;;;;;17.33;14.90;;;;;;;;;;4964838;28;20177;-80
2020/12/10 11:34:55;;;;;;;17.70;14.90;;;;;;;;;;4963526;29;20200;-80
2020/12/10 11:37:21;;;;;;;18.00;14.23;;;;;;;;;;4965028;28;20204;-80
2020/12/10 11:39:47;;;;;;;16.00;13.33;;;;;;;;;;4964090;29;20185;-79
2020/12/10 11:42:20;;;;;;;16.67;13.07;;;;;;;;;;4964503;29;20193;-78
2020/12/10 11:44:47;;;;;;;15.90;12.27;;;;;;;;;;4966845;29;20238;-80
2020/12/10 11:47:19;;;;;;;13.43;11.67;;;;;;;;;;4974721;28;20255;-78
2020/12/10 11:49:45;;;;;;;13.40;12.00;;;;;;;;;;4914971;29;20210;-78
2020/12/10 11:52:12;;;;;;;13.07;11.50;;;;;;;;;;4920490;29;20194;-78
2020/12/10 11:54:38;;;;;;;15.03;12.37;;;;;;;;;;4919791;29;20717;-79
2020/12/10 11:57:04;;;;;;;14.10;12.50;;;;;;;;;;4919641;29;20372;-79
2020/12/10 11:59:30;;;;;;;16.20;12.70;;;;;;;;;;4901963;29;20203;-79
2020/12/10 12:01:57;;;;;;;17.77;13.37;;;;;;;;;;4902347;29;20184;-79
2020/12/10 12:04:23;;;;;;;18.37;13.57;;;;;;;;;;4899777;29;20184;-80
2020/12/10 12:06:49;;;;;;;16.97;13.93;;;;;;;;;;4901216;29;20258;-78
2020/12/10 12:09:15;;;;;;;16.40;13.60;;;;;;;;;;4900545;29;20207;-80
2020/12/10 12:11:42;;;;;;;71.93;42.40;;;;;;;;;;4901565;29;20214;-79
2020/12/10 12:14:08;;;;;;;20.53;16.07;;;;;;;;;;4899299;29;20214;-79
2020/12/10 12:16:34;;;;;;;23.17;15.37;;;;;;;;;;4899848;29;20184;-79
2020/12/10 12:19:00;;;;;;;14.33;11.70;;;;;;;;;;4901218;29;20207;-80
2020/12/10 12:21:27;;;;;;;15.67;12.73;;;;;;;;;;4900553;29;20231;-81
2020/12/10 12:23:53;;;;;;;19.43;13.77;;;;;;;;;;4900839;29;20186;-81
2020/12/10 12:26:28;;;;;;;22.33;14.83;;;;;;;;;;4901512;29;20188;-81
2020/12/10 12:28:54;;;;;;;13.67;11.57;;;;;;;;;;4900413;29;20206;-80
2020/12/10 12:31:26;;;;;;;14.97;11.63;;;;;;;;;;4900699;29;20207;-80
2020/12/10 12:33:52;;;;;;;12.93;10.87;;;;;;;;;;4901091;29;20297;-80
2020/12/10 12:36:18;;;;;;;25.57;15.40;;;;;;;;;;4899075;29;20219;-80
2020/12/10 12:38:44;;;;;;;19.70;13.77;;;;;;;;;;4900559;29;20567;-80
2020/12/10 12:41:11;;;;;;;11.47;10.27;;;;;;;;;;4901038;29;20199;-80
2020/12/10 12:43:37;;;;;;;15.93;10.80;;;;;;;;;;4900792;29;20187;-80
2020/12/10 12:46:06;;;;;;;12.17;10.90;;;;;;;;;;4900753;29;20239;-80
2020/12/10 12:48:32;;;;;;;11.17;9.90;;;;;;;;;;4900496;29;20640;-80
2020/12/10 12:50:59;;;;;;;12.33;11.03;;;;;;;;;;4900540;29;20186;-80
2020/12/10 12:53:25;;;;;;;15.70;11.00;;;;;;;;;;4900384;29;20673;-79
2020/12/10 12:55:52;;;;;;;14.10;11.57;;;;;;;;;;4900130;29;20191;-79
2020/12/10 12:58:18;;;;;;;14.90;10.63;;;;;;;;;;4900327;29;20343;-79
2020/12/10 13:00:44;;;;;;;15.30;11.73;;;;;;;;;;4900315;29;20179;-80
2020/12/10 13:03:11;;;;;;;14.97;11.53;;;;;;;;;;4899899;29;20179;-80
2020/12/10 13:05:37;;;;;;;12.30;10.67;;;;;;;;;;4900260;29;20270;-79
2020/12/10 13:08:04;;;;;;;19.40;13.37;;;;;;;;;;4903470;29;20678;-80
2020/12/10 13:10:30;;;;;;;19.50;12.37;;;;;;;;;;4903666;29;20614;-80
2020/12/10 13:12:56;;;;;;;135.93;43.43;;;;;;;;;;4904116;29;20642;-79
2020/12/10 13:15:23;;;;;;;25.97;14.23;;;;;;;;;;4903561;29;20207;-79
2020/12/10 13:17:51;;;;;;;12.90;10.13;;;;;;;;;;4903690;29;20203;-80
2020/12/10 13:20:17;;;;;;;11.63;9.80;;;;;;;;;;4903787;29;20219;-79
2020/12/10 13:22:44;;;;;;;17.53;9.57;;;;;;;;;;4904078;29;20183;-79
2020/12/10 13:25:10;;;;;;;10.77;9.47;;;;;;;;;;4904000;29;20209;-80
2020/12/10 13:27:36;;;;;;;10.60;9.60;;;;;;;;;;4902322;29;20709;-79
2020/12/10 13:30:03;;;;;;;11.30;9.93;;;;;;;;;;4903548;29;20215;-80
2020/12/10 13:32:29;;;;;;;12.43;11.13;;;;;;;;;;4903683;29;20670;-80
2020/12/10 13:34:56;;;;;;;12.07;10.87;;;;;;;;;;4902884;29;20720;-79
2020/12/10 13:37:23;;;;;;;10.73;8.93;;;;;;;;;;4902692;29;20588;-79
2020/12/10 13:39:49;;;;;;;11.40;9.80;;;;;;;;;;4903254;29;20784;-79
2020/12/10 13:42:16;;;;;;;10.73;9.57;;;;;;;;;;4903802;29;20183;-79
2020/12/10 13:44:44;;;;;;;11.03;8.97;;;;;;;;;;4902878;29;20186;-79
2020/12/10 13:47:14;;;;;;;11.43;10.23;;;;;;;;;;4902018;29;20642;-80
2020/12/10 13:49:40;;;;;;;12.33;10.37;;;;;;;;;;4901560;29;20222;-78
2020/12/10 13:52:07;;;;;;;18.90;12.40;;;;;;;;;;4903608;29;20662;-80
2020/12/10 13:54:36;;;;;;;19.07;13.17;;;;;;;;;;4903548;29;20553;-80
2020/12/10 13:57:02;;;;;;;10.50;9.47;;;;;;;;;;4903114;29;20183;-80
2020/12/10 13:59:28;;;;;;;11.57;9.33;;;;;;;;;;4903039;29;20697;-79
2020/12/10 14:01:55;;;;;;;10.93;9.13;;;;;;;;;;4903135;29;20295;-79
2020/12/10 14:04:21;;;;;;;10.77;9.77;;;;;;;;;;4903145;29;20654;-80
2020/12/10 14:06:50;;;;;;;12.87;10.00;;;;;;;;;;4901514;29;20194;-79
2020/12/10 14:09:16;;;;;;;10.57;9.50;;;;;;;;;;4902531;29;20205;-79
2020/12/10 14:11:42;;;;;;;10.30;9.27;;;;;;;;;;4902601;29;20191;-78
2020/12/10 14:14:08;;;;;;;10.87;9.63;;;;;;;;;;4900792;29;20208;-80
2020/12/10 14:16:37;;;;;;;10.57;9.57;;;;;;;;;;4901824;29;20188;-79
2020/12/10 14:19:03;;;;;;;11.00;9.80;;;;;;;;;;4902050;29;20215;-79
2020/12/10 14:21:29;;;;;;;10.50;9.40;;;;;;;;;;4885575;29;20282;-80
2020/12/10 14:23:55;;;;;;;10.13;9.00;;;;;;;;;;4902040;29;20218;-80
2020/12/10 14:26:21;;;;;;;9.97;9.07;;;;;;;;;;4900528;29;20186;-79
2020/12/10 14:28:48;;;;;;;14.57;9.70;;;;;;;;;;4901587;29;20706;-79
2020/12/10 14:31:14;;;;;;;12.93;10.53;;;;;;;;;;4900091;29;20254;-79
2020/12/10 14:33:41;;;;;;;10.80;9.77;;;;;;;;;;4901279;29;20238;-79
2020/12/10 14:36:07;;;;;;;12.07;9.97;;;;;;;;;;4901706;29;20183;-79